sensor_id;sensor_type;location;lat;lon;timestamp;P1;durP1;ratioP1;P2;durP2;ratioP2
11245;SDS011;59870;50.106;8.580;2023-07-16T00:01:11;3.50;;;3.20;;
11245;SDS011;59870;50.106;8.580;2023-07-16T00:03:39;4.13;;;3.83;;
11245;SDS011;59870;50.106;8.580;2023-07-16T00:06:06;4.17;;;3.77;;
11245;SDS011;59870;50.106;8.580;2023-07-16T00:08:34;3.27;;;3.07;;
11245;SDS011;59870;50.106;8.580;2023-07-16T00:11:02;3.67;;;3.47;;
11245;SDS011;59870;50.106;8.580;2023-07-16T00:13:30;3.30;;;3.10;;
11245;SDS011;59870;50.106;8.580;2023-07-16T00:15:58;3.80;;;3.50;;
11245;SDS011;59870;50.106;8.580;2023-07-16T00:18:25;3.23;;;3.13;;
11245;SDS011;59870;50.106;8.580;2023-07-16T00:20:53;5.50;;;3.10;;
11245;SDS011;59870;50.106;8.580;2023-07-16T00:23:20;3.00;;;2.80;;
11245;SDS011;59870;50.106;8.580;2023-07-16T00:25:47;2.87;;;2.63;;
11245;SDS011;59870;50.106;8.580;2023-07-16T00:28:15;3.13;;;2.93;;
11245;SDS011;59870;50.106;8.580;2023-07-16T00:30:42;2.93;;;2.83;;
11245;SDS011;59870;50.106;8.580;2023-07-16T00:33:10;3.20;;;3.00;;
11245;SDS011;59870;50.106;8.580;2023-07-16T00:35:38;5.43;;;3.30;;
11245;SDS011;59870;50.106;8.580;2023-07-16T00:38:05;3.30;;;3.10;;
11245;SDS011;59870;50.106;8.580;2023-07-16T00:40:33;3.03;;;2.90;;
11245;SDS011;59870;50.106;8.580;2023-07-16T00:43:00;3.23;;;2.90;;
11245;SDS011;59870;50.106;8.580;2023-07-16T00:45:28;3.57;;;3.27;;
11245;SDS011;59870;50.106;8.580;2023-07-16T00:47:57;5.47;;;3.23;;
11245;SDS011;59870;50.106;8.580;2023-07-16T00:50:26;3.20;;;3.00;;
11245;SDS011;59870;50.106;8.580;2023-07-16T00:52:54;3.17;;;3.00;;
11245;SDS011;59870;50.106;8.580;2023-07-16T00:55:22;3.83;;;2.77;;
11245;SDS011;59870;50.106;8.580;2023-07-16T00:57:50;3.63;;;3.13;;
11245;SDS011;59870;50.106;8.580;2023-07-16T01:00:18;2.93;;;2.73;;
11245;SDS011;59870;50.106;8.580;2023-07-16T01:02:50;3.40;;;3.13;;
11245;SDS011;59870;50.106;8.580;2023-07-16T01:05:18;3.00;;;2.90;;
11245;SDS011;59870;50.106;8.580;2023-07-16T01:07:49;4.50;;;3.23;;
11245;SDS011;59870;50.106;8.580;2023-07-16T01:10:25;4.57;;;3.17;;
11245;SDS011;59870;50.106;8.580;2023-07-16T01:12:55;4.10;;;3.00;;
11245;SDS011;59870;50.106;8.580;2023-07-16T01:15:24;3.10;;;2.90;;
11245;SDS011;59870;50.106;8.580;2023-07-16T01:17:52;3.00;;;2.77;;
11245;SDS011;59870;50.106;8.580;2023-07-16T01:20:19;3.90;;;3.60;;
11245;SDS011;59870;50.106;8.580;2023-07-16T01:31:11;2.80;;;2.70;;
11245;SDS011;59870;50.106;8.580;2023-07-16T01:33:39;3.10;;;2.90;;
11245;SDS011;59870;50.106;8.580;2023-07-16T01:36:12;3.37;;;3.07;;
11245;SDS011;59870;50.106;8.580;2023-07-16T01:38:41;3.00;;;2.80;;
11245;SDS011;59870;50.106;8.580;2023-07-16T01:41:08;3.43;;;3.03;;
11245;SDS011;59870;50.106;8.580;2023-07-16T01:43:36;3.03;;;2.87;;
11245;SDS011;59870;50.106;8.580;2023-07-16T01:46:04;2.90;;;2.70;;
11245;SDS011;59870;50.106;8.580;2023-07-16T01:48:32;3.17;;;2.97;;
11245;SDS011;59870;50.106;8.580;2023-07-16T01:51:02;3.53;;;3.20;;
11245;SDS011;59870;50.106;8.580;2023-07-16T01:53:31;5.07;;;3.20;;
11245;SDS011;59870;50.106;8.580;2023-07-16T01:56:03;5.20;;;2.97;;
11245;SDS011;59870;50.106;8.580;2023-07-16T01:58:30;3.50;;;3.20;;
11245;SDS011;59870;50.106;8.580;2023-07-16T02:00:58;3.57;;;2.90;;
11245;SDS011;59870;50.106;8.580;2023-07-16T02:03:26;3.83;;;2.90;;
11245;SDS011;59870;50.106;8.580;2023-07-16T02:05:55;3.00;;;2.90;;
11245;SDS011;59870;50.106;8.580;2023-07-16T02:08:22;3.33;;;3.13;;
11245;SDS011;59870;50.106;8.580;2023-07-16T02:10:49;2.90;;;2.70;;
11245;SDS011;59870;50.106;8.580;2023-07-16T02:13:17;3.03;;;2.77;;
11245;SDS011;59870;50.106;8.580;2023-07-16T02:15:45;3.00;;;2.60;;
11245;SDS011;59870;50.106;8.580;2023-07-16T02:18:14;6.90;;;3.20;;
11245;SDS011;59870;50.106;8.580;2023-07-16T02:20:42;3.23;;;2.93;;
11245;SDS011;59870;50.106;8.580;2023-07-16T02:23:10;4.10;;;3.23;;
11245;SDS011;59870;50.106;8.580;2023-07-16T02:25:38;3.10;;;2.80;;
11245;SDS011;59870;50.106;8.580;2023-07-16T02:28:05;7.50;;;3.20;;
11245;SDS011;59870;50.106;8.580;2023-07-16T02:30:32;3.30;;;3.10;;
11245;SDS011;59870;50.106;8.580;2023-07-16T02:33:00;3.73;;;2.90;;
11245;SDS011;59870;50.106;8.580;2023-07-16T02:35:28;3.07;;;2.83;;
11245;SDS011;59870;50.106;8.580;2023-07-16T02:37:56;2.87;;;2.70;;
11245;SDS011;59870;50.106;8.580;2023-07-16T02:40:25;3.87;;;2.90;;
11245;SDS011;59870;50.106;8.580;2023-07-16T02:42:53;5.87;;;3.20;;
11245;SDS011;59870;50.106;8.580;2023-07-16T02:45:21;3.60;;;3.37;;
11245;SDS011;59870;50.106;8.580;2023-07-16T02:47:48;3.27;;;3.07;;
11245;SDS011;59870;50.106;8.580;2023-07-16T02:50:15;2.87;;;2.70;;
11245;SDS011;59870;50.106;8.580;2023-07-16T02:52:43;3.43;;;2.70;;
11245;SDS011;59870;50.106;8.580;2023-07-16T02:55:11;4.60;;;2.63;;
11245;SDS011;59870;50.106;8.580;2023-07-16T02:57:39;4.80;;;3.13;;
11245;SDS011;59870;50.106;8.580;2023-07-16T03:00:07;3.23;;;3.03;;
11245;SDS011;59870;50.106;8.580;2023-07-16T03:02:35;4.40;;;3.00;;
11245;SDS011;59870;50.106;8.580;2023-07-16T03:05:03;3.33;;;3.10;;
11245;SDS011;59870;50.106;8.580;2023-07-16T03:07:31;2.90;;;2.70;;
11245;SDS011;59870;50.106;8.580;2023-07-16T03:09:59;4.43;;;3.00;;
11245;SDS011;59870;50.106;8.580;2023-07-16T03:12:27;3.83;;;2.70;;
11245;SDS011;59870;50.106;8.580;2023-07-16T03:14:54;2.87;;;2.70;;
11245;SDS011;59870;50.106;8.580;2023-07-16T03:17:22;3.43;;;3.00;;
11245;SDS011;59870;50.106;8.580;2023-07-16T03:19:51;3.30;;;3.03;;
11245;SDS011;59870;50.106;8.580;2023-07-16T03:22:18;4.53;;;2.83;;
11245;SDS011;59870;50.106;8.580;2023-07-16T03:24:48;3.43;;;3.10;;
11245;SDS011;59870;50.106;8.580;2023-07-16T03:27:16;3.40;;;3.00;;
11245;SDS011;59870;50.106;8.580;2023-07-16T03:29:50;3.27;;;2.97;;
11245;SDS011;59870;50.106;8.580;2023-07-16T03:32:18;3.60;;;3.30;;
11245;SDS011;59870;50.106;8.580;2023-07-16T03:34:46;3.10;;;2.90;;
11245;SDS011;59870;50.106;8.580;2023-07-16T03:37:13;3.10;;;2.90;;
11245;SDS011;59870;50.106;8.580;2023-07-16T03:39:41;3.40;;;3.20;;
11245;SDS011;59870;50.106;8.580;2023-07-16T03:42:08;3.40;;;3.10;;
11245;SDS011;59870;50.106;8.580;2023-07-16T03:44:37;4.03;;;3.60;;
11245;SDS011;59870;50.106;8.580;2023-07-16T03:47:05;6.80;;;4.03;;
11245;SDS011;59870;50.106;8.580;2023-07-16T03:49:33;3.80;;;3.50;;
11245;SDS011;59870;50.106;8.580;2023-07-16T03:52:00;4.20;;;3.80;;
11245;SDS011;59870;50.106;8.580;2023-07-16T03:54:28;4.53;;;3.60;;
11245;SDS011;59870;50.106;8.580;2023-07-16T03:56:55;3.73;;;3.43;;
11245;SDS011;59870;50.106;8.580;2023-07-16T03:59:25;10.10;;;3.17;;
11245;SDS011;59870;50.106;8.580;2023-07-16T04:01:53;4.30;;;3.20;;
11245;SDS011;59870;50.106;8.580;2023-07-16T04:04:21;5.10;;;3.80;;
11245;SDS011;59870;50.106;8.580;2023-07-16T04:06:48;4.30;;;3.60;;
11245;SDS011;59870;50.106;8.580;2023-07-16T04:09:16;7.37;;;3.77;;
11245;SDS011;59870;50.106;8.580;2023-07-16T04:11:43;4.17;;;3.87;;
11245;SDS011;59870;50.106;8.580;2023-07-16T04:14:11;4.60;;;3.70;;
11245;SDS011;59870;50.106;8.580;2023-07-16T04:16:39;8.50;;;3.67;;
11245;SDS011;59870;50.106;8.580;2023-07-16T04:19:09;4.27;;;3.80;;
11245;SDS011;59870;50.106;8.580;2023-07-16T04:21:37;4.43;;;4.10;;
11245;SDS011;59870;50.106;8.580;2023-07-16T04:24:06;3.43;;;3.23;;
11245;SDS011;59870;50.106;8.580;2023-07-16T04:26:33;4.00;;;3.60;;
11245;SDS011;59870;50.106;8.580;2023-07-16T04:29:01;3.80;;;3.60;;
11245;SDS011;59870;50.106;8.580;2023-07-16T04:31:28;4.03;;;3.60;;
11245;SDS011;59870;50.106;8.580;2023-07-16T04:33:56;3.77;;;3.47;;
11245;SDS011;59870;50.106;8.580;2023-07-16T04:36:23;4.00;;;3.70;;
11245;SDS011;59870;50.106;8.580;2023-07-16T04:38:50;4.63;;;3.63;;
11245;SDS011;59870;50.106;8.580;2023-07-16T04:41:20;7.77;;;4.37;;
11245;SDS011;59870;50.106;8.580;2023-07-16T04:43:47;4.07;;;3.70;;
11245;SDS011;59870;50.106;8.580;2023-07-16T04:46:15;6.77;;;3.60;;
11245;SDS011;59870;50.106;8.580;2023-07-16T04:48:43;4.60;;;3.97;;
11245;SDS011;59870;50.106;8.580;2023-07-16T04:51:11;4.27;;;3.90;;
11245;SDS011;59870;50.106;8.580;2023-07-16T04:53:38;4.80;;;3.47;;
11245;SDS011;59870;50.106;8.580;2023-07-16T04:56:11;3.93;;;3.57;;
11245;SDS011;59870;50.106;8.580;2023-07-16T04:58:40;5.97;;;3.43;;
11245;SDS011;59870;50.106;8.580;2023-07-16T05:01:08;3.63;;;3.13;;
11245;SDS011;59870;50.106;8.580;2023-07-16T05:03:36;5.23;;;3.20;;
11245;SDS011;59870;50.106;8.580;2023-07-16T05:06:04;4.63;;;3.07;;
11245;SDS011;59870;50.106;8.580;2023-07-16T05:08:32;3.43;;;3.13;;
11245;SDS011;59870;50.106;8.580;2023-07-16T05:11:00;4.30;;;3.30;;
11245;SDS011;59870;50.106;8.580;2023-07-16T05:13:28;3.30;;;3.00;;
11245;SDS011;59870;50.106;8.580;2023-07-16T05:15:56;3.40;;;3.10;;
11245;SDS011;59870;50.106;8.580;2023-07-16T05:18:23;6.20;;;3.30;;
11245;SDS011;59870;50.106;8.580;2023-07-16T05:20:51;8.70;;;2.77;;
11245;SDS011;59870;50.106;8.580;2023-07-16T05:23:19;3.40;;;3.10;;
11245;SDS011;59870;50.106;8.580;2023-07-16T05:25:47;4.83;;;3.07;;
11245;SDS011;59870;50.106;8.580;2023-07-16T05:28:16;6.27;;;3.37;;
11245;SDS011;59870;50.106;8.580;2023-07-16T05:30:45;5.13;;;2.90;;
11245;SDS011;59870;50.106;8.580;2023-07-16T05:33:12;9.47;;;3.63;;
11245;SDS011;59870;50.106;8.580;2023-07-16T05:35:40;5.10;;;3.50;;
11245;SDS011;59870;50.106;8.580;2023-07-16T05:38:07;4.67;;;3.83;;
11245;SDS011;59870;50.106;8.580;2023-07-16T05:40:35;4.50;;;3.67;;
11245;SDS011;59870;50.106;8.580;2023-07-16T05:43:02;4.23;;;3.20;;
11245;SDS011;59870;50.106;8.580;2023-07-16T05:45:30;4.97;;;3.57;;
11245;SDS011;59870;50.106;8.580;2023-07-16T05:47:57;6.20;;;3.20;;
11245;SDS011;59870;50.106;8.580;2023-07-16T05:50:26;5.43;;;3.50;;
11245;SDS011;59870;50.106;8.580;2023-07-16T05:52:54;5.87;;;3.87;;
11245;SDS011;59870;50.106;8.580;2023-07-16T05:55:28;4.40;;;4.00;;
11245;SDS011;59870;50.106;8.580;2023-07-16T05:57:56;4.80;;;3.70;;
11245;SDS011;59870;50.106;8.580;2023-07-16T06:00:23;6.83;;;3.87;;
11245;SDS011;59870;50.106;8.580;2023-07-16T06:02:54;3.80;;;3.50;;
11245;SDS011;59870;50.106;8.580;2023-07-16T06:05:22;4.10;;;3.60;;
11245;SDS011;59870;50.106;8.580;2023-07-16T06:07:53;4.20;;;3.90;;
11245;SDS011;59870;50.106;8.580;2023-07-16T06:10:29;6.60;;;4.10;;
11245;SDS011;59870;50.106;8.580;2023-07-16T06:13:17;4.30;;;3.90;;
11245;SDS011;59870;50.106;8.580;2023-07-16T06:15:45;7.33;;;3.87;;
11245;SDS011;59870;50.106;8.580;2023-07-16T06:18:18;4.00;;;3.70;;
11245;SDS011;59870;50.106;8.580;2023-07-16T06:20:49;4.73;;;3.60;;
11245;SDS011;59870;50.106;8.580;2023-07-16T06:23:18;4.10;;;3.50;;
11245;SDS011;59870;50.106;8.580;2023-07-16T06:25:46;5.87;;;3.70;;
11245;SDS011;59870;50.106;8.580;2023-07-16T06:28:15;5.00;;;3.50;;
11245;SDS011;59870;50.106;8.580;2023-07-16T06:30:42;8.60;;;4.00;;
11245;SDS011;59870;50.106;8.580;2023-07-16T06:33:10;6.00;;;4.20;;
11245;SDS011;59870;50.106;8.580;2023-07-16T06:35:38;4.33;;;3.93;;
11245;SDS011;59870;50.106;8.580;2023-07-16T06:38:05;3.93;;;3.50;;
11245;SDS011;59870;50.106;8.580;2023-07-16T06:40:32;6.27;;;3.90;;
11245;SDS011;59870;50.106;8.580;2023-07-16T06:43:00;5.93;;;3.30;;
11245;SDS011;59870;50.106;8.580;2023-07-16T06:45:27;4.47;;;4.07;;
11245;SDS011;59870;50.106;8.580;2023-07-16T06:47:55;4.70;;;3.90;;
11245;SDS011;59870;50.106;8.580;2023-07-16T06:50:22;4.20;;;3.80;;
11245;SDS011;59870;50.106;8.580;2023-07-16T06:52:49;4.83;;;4.07;;
11245;SDS011;59870;50.106;8.580;2023-07-16T06:55:17;4.53;;;3.70;;
11245;SDS011;59870;50.106;8.580;2023-07-16T06:57:44;4.80;;;3.50;;
11245;SDS011;59870;50.106;8.580;2023-07-16T07:00:12;5.70;;;3.67;;
11245;SDS011;59870;50.106;8.580;2023-07-16T07:02:39;5.80;;;4.33;;
11245;SDS011;59870;50.106;8.580;2023-07-16T07:05:07;4.80;;;4.30;;
11245;SDS011;59870;50.106;8.580;2023-07-16T07:07:34;8.37;;;4.63;;
11245;SDS011;59870;50.106;8.580;2023-07-16T07:10:02;4.37;;;3.87;;
11245;SDS011;59870;50.106;8.580;2023-07-16T07:12:29;9.17;;;3.83;;
11245;SDS011;59870;50.106;8.580;2023-07-16T07:15:01;7.53;;;4.87;;
11245;SDS011;59870;50.106;8.580;2023-07-16T07:17:29;4.50;;;3.73;;
11245;SDS011;59870;50.106;8.580;2023-07-16T07:19:56;4.32;;;3.67;;
11245;SDS011;59870;50.106;8.580;2023-07-16T07:22:24;5.43;;;3.90;;
11245;SDS011;59870;50.106;8.580;2023-07-16T07:24:51;4.07;;;3.77;;
11245;SDS011;59870;50.106;8.580;2023-07-16T07:27:19;4.13;;;3.73;;
11245;SDS011;59870;50.106;8.580;2023-07-16T07:29:46;6.65;;;4.05;;
11245;SDS011;59870;50.106;8.580;2023-07-16T07:32:19;3.83;;;3.50;;
11245;SDS011;59870;50.106;8.580;2023-07-16T07:34:47;4.90;;;4.40;;
11245;SDS011;59870;50.106;8.580;2023-07-16T07:37:15;5.90;;;3.70;;
11245;SDS011;59870;50.106;8.580;2023-07-16T07:39:43;6.67;;;4.00;;
11245;SDS011;59870;50.106;8.580;2023-07-16T07:42:15;6.63;;;4.00;;
11245;SDS011;59870;50.106;8.580;2023-07-16T07:44:43;3.63;;;3.33;;
11245;SDS011;59870;50.106;8.580;2023-07-16T07:47:10;5.72;;;3.75;;
11245;SDS011;59870;50.106;8.580;2023-07-16T07:49:37;7.53;;;4.20;;
11245;SDS011;59870;50.106;8.580;2023-07-16T07:52:06;4.22;;;3.88;;
11245;SDS011;59870;50.106;8.580;2023-07-16T07:54:34;3.65;;;3.38;;
11245;SDS011;59870;50.106;8.580;2023-07-16T07:57:06;5.93;;;4.07;;
11245;SDS011;59870;50.106;8.580;2023-07-16T07:59:33;3.92;;;3.58;;
11245;SDS011;59870;50.106;8.580;2023-07-16T08:02:01;5.45;;;3.85;;
11245;SDS011;59870;50.106;8.580;2023-07-16T08:04:28;5.38;;;3.40;;
11245;SDS011;59870;50.106;8.580;2023-07-16T08:07:09;4.32;;;3.92;;
11245;SDS011;59870;50.106;8.580;2023-07-16T08:09:37;5.23;;;3.73;;
11245;SDS011;59870;50.106;8.580;2023-07-16T08:12:05;5.30;;;3.78;;
11245;SDS011;59870;50.106;8.580;2023-07-16T08:14:32;6.97;;;4.20;;
11245;SDS011;59870;50.106;8.580;2023-07-16T08:17:00;4.03;;;3.60;;
11245;SDS011;59870;50.106;8.580;2023-07-16T08:19:27;3.95;;;3.50;;
11245;SDS011;59870;50.106;8.580;2023-07-16T08:21:55;3.63;;;3.33;;
11245;SDS011;59870;50.106;8.580;2023-07-16T08:24:22;6.20;;;3.63;;
11245;SDS011;59870;50.106;8.580;2023-07-16T08:26:52;5.22;;;3.75;;
11245;SDS011;59870;50.106;8.580;2023-07-16T08:29:19;4.68;;;3.20;;
11245;SDS011;59870;50.106;8.580;2023-07-16T08:31:46;4.63;;;3.60;;
11245;SDS011;59870;50.106;8.580;2023-07-16T08:34:14;6.07;;;3.78;;
11245;SDS011;59870;50.106;8.580;2023-07-16T08:36:41;3.63;;;3.33;;
11245;SDS011;59870;50.106;8.580;2023-07-16T08:39:11;4.22;;;3.78;;
11245;SDS011;59870;50.106;8.580;2023-07-16T08:41:39;9.75;;;3.75;;
11245;SDS011;59870;50.106;8.580;2023-07-16T08:44:06;3.63;;;3.38;;
11245;SDS011;59870;50.106;8.580;2023-07-16T08:46:34;4.63;;;3.65;;
11245;SDS011;59870;50.106;8.580;2023-07-16T08:49:01;3.95;;;3.55;;
11245;SDS011;59870;50.106;8.580;2023-07-16T08:51:31;4.00;;;3.35;;
11245;SDS011;59870;50.106;8.580;2023-07-16T08:54:01;4.47;;;3.20;;
11245;SDS011;59870;50.106;8.580;2023-07-16T08:56:29;4.97;;;3.50;;
11245;SDS011;59870;50.106;8.580;2023-07-16T08:58:56;3.65;;;3.33;;
11245;SDS011;59870;50.106;8.580;2023-07-16T09:01:25;8.23;;;3.83;;
11245;SDS011;59870;50.106;8.580;2023-07-16T09:03:53;3.97;;;3.50;;
11245;SDS011;59870;50.106;8.580;2023-07-16T09:06:21;6.35;;;3.42;;
11245;SDS011;59870;50.106;8.580;2023-07-16T09:08:49;7.93;;;3.72;;
11245;SDS011;59870;50.106;8.580;2023-07-16T09:11:17;7.95;;;4.13;;
11245;SDS011;59870;50.106;8.580;2023-07-16T09:13:48;4.60;;;3.40;;
11245;SDS011;59870;50.106;8.580;2023-07-16T09:16:19;4.45;;;3.33;;
11245;SDS011;59870;50.106;8.580;2023-07-16T09:18:47;4.63;;;3.45;;
11245;SDS011;59870;50.106;8.580;2023-07-16T09:21:15;4.70;;;3.40;;
11245;SDS011;59870;50.106;8.580;2023-07-16T09:23:44;5.28;;;3.35;;
11245;SDS011;59870;50.106;8.580;2023-07-16T09:26:11;3.25;;;2.92;;
11245;SDS011;59870;50.106;8.580;2023-07-16T09:28:39;3.95;;;3.53;;
11245;SDS011;59870;50.106;8.580;2023-07-16T09:31:07;3.65;;;3.35;;
11245;SDS011;59870;50.106;8.580;2023-07-16T09:33:34;3.90;;;3.50;;
11245;SDS011;59870;50.106;8.580;2023-07-16T09:36:02;3.80;;;3.13;;
11245;SDS011;59870;50.106;8.580;2023-07-16T09:38:30;3.45;;;3.15;;
11245;SDS011;59870;50.106;8.580;2023-07-16T09:40:59;6.00;;;3.53;;
11245;SDS011;59870;50.106;8.580;2023-07-16T09:43:29;3.60;;;3.30;;
11245;SDS011;59870;50.106;8.580;2023-07-16T09:45:57;4.22;;;3.55;;
11245;SDS011;59870;50.106;8.580;2023-07-16T09:48:24;3.67;;;3.38;;
11245;SDS011;59870;50.106;8.580;2023-07-16T09:50:53;14.73;;;4.10;;
11245;SDS011;59870;50.106;8.580;2023-07-16T09:53:21;4.28;;;3.70;;
11245;SDS011;59870;50.106;8.580;2023-07-16T09:55:54;4.90;;;3.35;;
11245;SDS011;59870;50.106;8.580;2023-07-16T09:58:22;5.50;;;3.17;;
11245;SDS011;59870;50.106;8.580;2023-07-16T10:00:51;3.65;;;3.35;;
11245;SDS011;59870;50.106;8.580;2023-07-16T10:03:19;4.82;;;2.60;;
11245;SDS011;59870;50.106;8.580;2023-07-16T10:05:47;4.20;;;3.15;;
11245;SDS011;59870;50.106;8.580;2023-07-16T10:08:17;4.55;;;3.65;;
11245;SDS011;59870;50.106;8.580;2023-07-16T10:10:47;3.85;;;3.22;;
11245;SDS011;59870;50.106;8.580;2023-07-16T10:13:16;6.20;;;3.60;;
11245;SDS011;59870;50.106;8.580;2023-07-16T10:15:50;3.65;;;3.35;;
11245;SDS011;59870;50.106;8.580;2023-07-16T10:18:22;3.72;;;3.38;;
11245;SDS011;59870;50.106;8.580;2023-07-16T10:21:04;5.22;;;3.90;;
11245;SDS011;59870;50.106;8.580;2023-07-16T10:23:42;4.10;;;3.50;;
11245;SDS011;59870;50.106;8.580;2023-07-16T10:26:11;4.88;;;3.45;;
11245;SDS011;59870;50.106;8.580;2023-07-16T10:28:45;4.20;;;3.38;;
11245;SDS011;59870;50.106;8.580;2023-07-16T10:31:23;4.33;;;3.93;;
11245;SDS011;59870;50.106;8.580;2023-07-16T10:34:02;5.87;;;3.27;;
11245;SDS011;59870;50.106;8.580;2023-07-16T10:36:37;4.03;;;3.70;;
11245;SDS011;59870;50.106;8.580;2023-07-16T10:39:05;3.35;;;3.15;;
11245;SDS011;59870;50.106;8.580;2023-07-16T10:41:33;5.57;;;3.93;;
11245;SDS011;59870;50.106;8.580;2023-07-16T10:44:00;5.43;;;3.42;;
11245;SDS011;59870;50.106;8.580;2023-07-16T10:46:31;4.17;;;3.30;;
11245;SDS011;59870;50.106;8.580;2023-07-16T10:49:01;7.38;;;3.38;;
11245;SDS011;59870;50.106;8.580;2023-07-16T10:51:29;4.38;;;3.17;;
11245;SDS011;59870;50.106;8.580;2023-07-16T10:53:57;3.37;;;3.07;;
11245;SDS011;59870;50.106;8.580;2023-07-16T10:56:25;4.05;;;3.63;;
11245;SDS011;59870;50.106;8.580;2023-07-16T10:58:52;8.57;;;3.92;;
11245;SDS011;59870;50.106;8.580;2023-07-16T11:01:21;3.95;;;3.65;;
11245;SDS011;59870;50.106;8.580;2023-07-16T11:03:48;4.03;;;3.20;;
11245;SDS011;59870;50.106;8.580;2023-07-16T11:06:16;5.60;;;3.42;;
11245;SDS011;59870;50.106;8.580;2023-07-16T11:08:46;5.43;;;3.67;;
11245;SDS011;59870;50.106;8.580;2023-07-16T11:11:14;4.00;;;3.47;;
11245;SDS011;59870;50.106;8.580;2023-07-16T11:13:41;3.75;;;3.45;;
11245;SDS011;59870;50.106;8.580;2023-07-16T11:16:15;4.07;;;3.67;;
11245;SDS011;59870;50.106;8.580;2023-07-16T11:18:43;4.85;;;3.70;;
11245;SDS011;59870;50.106;8.580;2023-07-16T11:21:11;4.00;;;3.47;;
11245;SDS011;59870;50.106;8.580;2023-07-16T11:23:38;4.03;;;3.55;;
11245;SDS011;59870;50.106;8.580;2023-07-16T11:26:06;3.43;;;3.03;;
11245;SDS011;59870;50.106;8.580;2023-07-16T11:28:38;5.53;;;3.28;;
11245;SDS011;59870;50.106;8.580;2023-07-16T11:31:12;5.15;;;3.85;;
11245;SDS011;59870;50.106;8.580;2023-07-16T11:33:43;5.30;;;3.65;;
11245;SDS011;59870;50.106;8.580;2023-07-16T11:36:11;3.60;;;3.05;;
11245;SDS011;59870;50.106;8.580;2023-07-16T11:38:40;3.67;;;3.00;;
11245;SDS011;59870;50.106;8.580;2023-07-16T11:41:08;3.38;;;3.08;;
11245;SDS011;59870;50.106;8.580;2023-07-16T11:43:36;9.77;;;3.25;;
11245;SDS011;59870;50.106;8.580;2023-07-16T11:46:16;4.53;;;3.38;;
11245;SDS011;59870;50.106;8.580;2023-07-16T11:48:45;3.60;;;3.35;;
11245;SDS011;59870;50.106;8.580;2023-07-16T11:51:12;3.78;;;3.47;;
11245;SDS011;59870;50.106;8.580;2023-07-16T11:53:40;3.80;;;3.20;;
11245;SDS011;59870;50.106;8.580;2023-07-16T11:56:07;7.60;;;3.55;;
11245;SDS011;59870;50.106;8.580;2023-07-16T11:58:36;3.28;;;3.00;;
11245;SDS011;59870;50.106;8.580;2023-07-16T12:01:03;3.88;;;3.22;;
11245;SDS011;59870;50.106;8.580;2023-07-16T12:03:30;3.55;;;3.25;;
11245;SDS011;59870;50.106;8.580;2023-07-16T12:05:58;3.57;;;3.27;;
11245;SDS011;59870;50.106;8.580;2023-07-16T12:08:26;4.00;;;3.60;;
11245;SDS011;59870;50.106;8.580;2023-07-16T12:10:53;3.67;;;3.20;;
11245;SDS011;59870;50.106;8.580;2023-07-16T12:13:21;3.92;;;3.45;;
11245;SDS011;59870;50.106;8.580;2023-07-16T12:15:48;3.95;;;3.45;;
11245;SDS011;59870;50.106;8.580;2023-07-16T12:18:15;3.50;;;3.13;;
11245;SDS011;59870;50.106;8.580;2023-07-16T12:20:43;3.70;;;3.30;;
11245;SDS011;59870;50.106;8.580;2023-07-16T12:23:10;3.67;;;3.37;;
11245;SDS011;59870;50.106;8.580;2023-07-16T12:25:38;3.73;;;3.43;;
11245;SDS011;59870;50.106;8.580;2023-07-16T12:28:05;4.50;;;3.53;;
11245;SDS011;59870;50.106;8.580;2023-07-16T12:30:32;7.53;;;4.03;;
11245;SDS011;59870;50.106;8.580;2023-07-16T12:33:00;3.43;;;3.23;;
11245;SDS011;59870;50.106;8.580;2023-07-16T12:35:27;4.87;;;3.67;;
11245;SDS011;59870;50.106;8.580;2023-07-16T12:37:55;3.80;;;3.47;;
11245;SDS011;59870;50.106;8.580;2023-07-16T12:40:25;3.97;;;3.60;;
11245;SDS011;59870;50.106;8.580;2023-07-16T12:42:53;9.98;;;4.45;;
11245;SDS011;59870;50.106;8.580;2023-07-16T12:45:20;4.22;;;3.70;;
11245;SDS011;59870;50.106;8.580;2023-07-16T12:47:48;4.00;;;3.70;;
11245;SDS011;59870;50.106;8.580;2023-07-16T12:50:15;3.80;;;3.50;;
11245;SDS011;59870;50.106;8.580;2023-07-16T12:52:43;4.63;;;4.23;;
11245;SDS011;59870;50.106;8.580;2023-07-16T12:55:10;4.82;;;4.32;;
11245;SDS011;59870;50.106;8.580;2023-07-16T12:57:38;4.85;;;4.20;;
11245;SDS011;59870;50.106;8.580;2023-07-16T13:00:05;4.53;;;4.13;;
11245;SDS011;59870;50.106;8.580;2023-07-16T13:02:36;5.83;;;4.80;;
11245;SDS011;59870;50.106;8.580;2023-07-16T13:05:05;4.30;;;3.90;;
11245;SDS011;59870;50.106;8.580;2023-07-16T13:07:32;10.10;;;4.60;;
11245;SDS011;59870;50.106;8.580;2023-07-16T13:10:01;4.97;;;4.47;;
11245;SDS011;59870;50.106;8.580;2023-07-16T13:12:48;5.43;;;4.80;;
11245;SDS011;59870;50.106;8.580;2023-07-16T13:15:15;4.72;;;4.32;;
11245;SDS011;59870;50.106;8.580;2023-07-16T13:17:43;5.68;;;4.60;;
11245;SDS011;59870;50.106;8.580;2023-07-16T13:20:10;5.57;;;4.50;;
11245;SDS011;59870;50.106;8.580;2023-07-16T13:22:38;4.82;;;4.43;;
11245;SDS011;59870;50.106;8.580;2023-07-16T13:25:06;4.78;;;4.35;;
11245;SDS011;59870;50.106;8.580;2023-07-16T13:27:34;5.20;;;4.32;;
11245;SDS011;59870;50.106;8.580;2023-07-16T13:30:02;4.80;;;4.47;;
11245;SDS011;59870;50.106;8.580;2023-07-16T13:32:30;4.93;;;4.55;;
11245;SDS011;59870;50.106;8.580;2023-07-16T13:34:57;4.85;;;4.22;;
11245;SDS011;59870;50.106;8.580;2023-07-16T13:37:25;5.35;;;4.22;;
11245;SDS011;59870;50.106;8.580;2023-07-16T13:39:53;5.82;;;4.55;;
11245;SDS011;59870;50.106;8.580;2023-07-16T13:42:21;5.03;;;4.63;;
11245;SDS011;59870;50.106;8.580;2023-07-16T13:44:50;5.97;;;5.03;;
11245;SDS011;59870;50.106;8.580;2023-07-16T13:47:17;5.13;;;4.68;;
11245;SDS011;59870;50.106;8.580;2023-07-16T13:49:44;5.35;;;4.93;;
11245;SDS011;59870;50.106;8.580;2023-07-16T13:52:12;5.17;;;4.77;;
11245;SDS011;59870;50.106;8.580;2023-07-16T13:54:39;4.97;;;4.57;;
11245;SDS011;59870;50.106;8.580;2023-07-16T13:57:08;4.80;;;4.40;;
11245;SDS011;59870;50.106;8.580;2023-07-16T13:59:36;4.88;;;4.45;;
11245;SDS011;59870;50.106;8.580;2023-07-16T14:02:04;6.13;;;4.60;;
11245;SDS011;59870;50.106;8.580;2023-07-16T14:04:32;4.63;;;4.23;;
11245;SDS011;59870;50.106;8.580;2023-07-16T14:06:59;4.32;;;4.03;;
11245;SDS011;59870;50.106;8.580;2023-07-16T14:09:28;5.67;;;5.13;;
11245;SDS011;59870;50.106;8.580;2023-07-16T14:11:55;4.70;;;4.17;;
11245;SDS011;59870;50.106;8.580;2023-07-16T14:14:23;4.80;;;4.47;;
11245;SDS011;59870;50.106;8.580;2023-07-16T14:16:51;4.83;;;4.33;;
11245;SDS011;59870;50.106;8.580;2023-07-16T14:19:18;5.77;;;4.77;;
11245;SDS011;59870;50.106;8.580;2023-07-16T14:21:46;5.05;;;4.65;;
11245;SDS011;59870;50.106;8.580;2023-07-16T14:24:13;8.25;;;6.32;;
11245;SDS011;59870;50.106;8.580;2023-07-16T14:26:41;5.63;;;4.40;;
11245;SDS011;59870;50.106;8.580;2023-07-16T14:29:08;5.78;;;5.20;;
11245;SDS011;59870;50.106;8.580;2023-07-16T14:31:38;7.30;;;6.60;;
11245;SDS011;59870;50.106;8.580;2023-07-16T14:34:05;7.13;;;5.43;;
11245;SDS011;59870;50.106;8.580;2023-07-16T14:36:33;6.37;;;5.87;;
11245;SDS011;59870;50.106;8.580;2023-07-16T14:39:01;5.50;;;5.10;;
11245;SDS011;59870;50.106;8.580;2023-07-16T14:41:28;9.77;;;8.97;;
11245;SDS011;59870;50.106;8.580;2023-07-16T14:43:56;7.85;;;7.00;;
11245;SDS011;59870;50.106;8.580;2023-07-16T14:46:24;5.43;;;5.03;;
11245;SDS011;59870;50.106;8.580;2023-07-16T14:48:52;8.80;;;8.05;;
11245;SDS011;59870;50.106;8.580;2023-07-16T14:51:22;9.60;;;5.57;;
11245;SDS011;59870;50.106;8.580;2023-07-16T14:53:51;5.22;;;4.72;;
11245;SDS011;59870;50.106;8.580;2023-07-16T14:56:19;5.43;;;4.90;;
11245;SDS011;59870;50.106;8.580;2023-07-16T14:58:47;5.32;;;4.95;;
11245;SDS011;59870;50.106;8.580;2023-07-16T15:01:15;11.18;;;5.97;;
11245;SDS011;59870;50.106;8.580;2023-07-16T15:03:42;5.87;;;5.37;;